sensor_id;sensor_type;location;lat;lon;timestamp;temperature;humidity
40454;DHT22;26160;51.858;4.398;2022-09-29T00:01:40;7.90;99.90
40454;DHT22;26160;51.858;4.398;2022-09-29T00:04:08;7.90;99.90
40454;DHT22;26160;51.858;4.398;2022-09-29T00:06:42;7.90;99.90
40454;DHT22;26160;51.858;4.398;2022-09-29T00:09:30;7.90;99.90
40454;DHT22;26160;51.858;4.398;2022-09-29T00:12:03;7.90;99.90
40454;DHT22;26160;51.858;4.398;2022-09-29T00:14:37;7.90;99.90
40454;DHT22;26160;51.858;4.398;2022-09-29T00:17:12;7.90;99.90
40454;DHT22;26160;51.858;4.398;2022-09-29T00:19:42;7.80;99.90
40454;DHT22;26160;51.858;4.398;2022-09-29T00:22:12;7.80;99.90
40454;DHT22;26160;51.858;4.398;2022-09-29T00:24:50;7.80;99.90
40454;DHT22;26160;51.858;4.398;2022-09-29T00:27:34;7.80;99.90
40454;DHT22;26160;51.858;4.398;2022-09-29T00:30:22;7.80;99.90
40454;DHT22;26160;51.858;4.398;2022-09-29T00:32:51;7.80;99.90
40454;DHT22;26160;51.858;4.398;2022-09-29T00:35:24;7.80;99.90
40454;DHT22;26160;51.858;4.398;2022-09-29T00:37:54;7.60;99.90
40454;DHT22;26160;51.858;4.398;2022-09-29T00:40:30;7.70;99.90
40454;DHT22;26160;51.858;4.398;2022-09-29T00:42:57;7.60;99.90
40454;DHT22;26160;51.858;4.398;2022-09-29T00:45:26;7.60;99.90
40454;DHT22;26160;51.858;4.398;2022-09-29T00:48:08;7.60;99.90
40454;DHT22;26160;51.858;4.398;2022-09-29T00:51:03;7.60;99.90
40454;DHT22;26160;51.858;4.398;2022-09-29T00:53:40;7.60;99.90
40454;DHT22;26160;51.858;4.398;2022-09-29T00:56:12;7.60;99.90
40454;DHT22;26160;51.858;4.398;2022-09-29T00:59:04;7.60;99.90
40454;DHT22;26160;51.858;4.398;2022-09-29T01:04:12;7.50;99.90
40454;DHT22;26160;51.858;4.398;2022-09-29T01:06:54;7.50;99.90
40454;DHT22;26160;51.858;4.398;2022-09-29T01:09:36;7.50;99.90
40454;DHT22;26160;51.858;4.398;2022-09-29T01:12:04;7.50;99.90
40454;DHT22;26160;51.858;4.398;2022-09-29T01:14:42;7.50;99.90
40454;DHT22;26160;51.858;4.398;2022-09-29T01:17:39;7.50;99.90
40454;DHT22;26160;51.858;4.398;2022-09-29T01:20:19;7.40;99.90
40454;DHT22;26160;51.858;4.398;2022-09-29T01:39:06;7.30;99.90
40454;DHT22;26160;51.858;4.398;2022-09-29T01:45:15;7.40;99.90
40454;DHT22;26160;51.858;4.398;2022-09-29T01:48:05;7.30;99.90
40454;DHT22;26160;51.858;4.398;2022-09-29T01:50:49;7.30;99.90
40454;DHT22;26160;51.858;4.398;2022-09-29T01:53:38;7.30;99.90
40454;DHT22;26160;51.858;4.398;2022-09-29T01:56:42;7.30;99.90
40454;DHT22;26160;51.858;4.398;2022-09-29T02:02:05;7.20;99.90
40454;DHT22;26160;51.858;4.398;2022-09-29T02:04:47;7.20;99.90
40454;DHT22;26160;51.858;4.398;2022-09-29T02:07:41;7.20;99.90
40454;DHT22;26160;51.858;4.398;2022-09-29T02:10:16;7.20;99.90
40454;DHT22;26160;51.858;4.398;2022-09-29T02:13:13;7.10;99.90
40454;DHT22;26160;51.858;4.398;2022-09-29T02:15:45;7.10;99.90
40454;DHT22;26160;51.858;4.398;2022-09-29T02:18:50;7.10;99.90
40454;DHT22;26160;51.858;4.398;2022-09-29T02:21:28;7.10;99.90
40454;DHT22;26160;51.858;4.398;2022-09-29T02:23:58;7.10;99.90
40454;DHT22;26160;51.858;4.398;2022-09-29T02:26:32;7.10;99.90
40454;DHT22;26160;51.858;4.398;2022-09-29T02:29:02;7.10;99.90
40454;DHT22;26160;51.858;4.398;2022-09-29T02:31:40;7.00;99.90
40454;DHT22;26160;51.858;4.398;2022-09-29T02:34:10;7.00;99.90
40454;DHT22;26160;51.858;4.398;2022-09-29T02:36:42;7.00;99.90
40454;DHT22;26160;51.858;4.398;2022-09-29T02:39:38;7.00;99.90
40454;DHT22;26160;51.858;4.398;2022-09-29T02:42:51;7.00;99.90
40454;DHT22;26160;51.858;4.398;2022-09-29T02:45:47;7.00;99.90
40454;DHT22;26160;51.858;4.398;2022-09-29T02:48:35;7.00;99.90
40454;DHT22;26160;51.858;4.398;2022-09-29T03:00:37;6.90;99.90
40454;DHT22;26160;51.858;4.398;2022-09-29T03:03:06;6.90;99.90
40454;DHT22;26160;51.858;4.398;2022-09-29T03:05:46;6.80;99.90
40454;DHT22;26160;51.858;4.398;2022-09-29T03:08:15;6.80;99.90
40454;DHT22;26160;51.858;4.398;2022-09-29T03:10:43;6.80;99.90
40454;DHT22;26160;51.858;4.398;2022-09-29T03:13:14;6.80;99.90
40454;DHT22;26160;51.858;4.398;2022-09-29T03:15:42;6.80;99.90
40454;DHT22;26160;51.858;4.398;2022-09-29T03:18:18;6.80;99.90
40454;DHT22;26160;51.858;4.398;2022-09-29T03:20:48;6.80;99.90
40454;DHT22;26160;51.858;4.398;2022-09-29T03:23:21;6.80;99.90
40454;DHT22;26160;51.858;4.398;2022-09-29T03:25:51;6.80;99.90
40454;DHT22;26160;51.858;4.398;2022-09-29T03:28:21;6.70;99.90
40454;DHT22;26160;51.858;4.398;2022-09-29T03:30:52;6.70;99.90
40454;DHT22;26160;51.858;4.398;2022-09-29T03:33:33;6.80;99.90
40454;DHT22;26160;51.858;4.398;2022-09-29T03:36:15;6.70;99.90
40454;DHT22;26160;51.858;4.398;2022-09-29T03:38:56;6.70;99.90
40454;DHT22;26160;51.858;4.398;2022-09-29T03:41:39;6.80;99.90
40454;DHT22;26160;51.858;4.398;2022-09-29T03:44:15;6.70;99.90
40454;DHT22;26160;51.858;4.398;2022-09-29T03:47:07;6.70;99.90
40454;DHT22;26160;51.858;4.398;2022-09-29T03:49:43;6.70;99.90
40454;DHT22;26160;51.858;4.398;2022-09-29T03:52:11;6.70;99.90
40454;DHT22;26160;51.858;4.398;2022-09-29T03:54:40;6.80;99.90
40454;DHT22;26160;51.858;4.398;2022-09-29T03:57:09;6.80;99.90
40454;DHT22;26160;51.858;4.398;2022-09-29T03:59:39;6.80;99.90
40454;DHT22;26160;51.858;4.398;2022-09-29T04:02:31;6.70;99.90
40454;DHT22;26160;51.858;4.398;2022-09-29T04:05:01;6.70;99.90
40454;DHT22;26160;51.858;4.398;2022-09-29T04:07:36;6.80;99.90
40454;DHT22;26160;51.858;4.398;2022-09-29T04:10:09;6.70;99.90
40454;DHT22;26160;51.858;4.398;2022-09-29T04:12:40;6.70;99.90
40454;DHT22;26160;51.858;4.398;2022-09-29T04:15:08;6.70;99.90
40454;DHT22;26160;51.858;4.398;2022-09-29T04:17:36;6.70;99.90
40454;DHT22;26160;51.858;4.398;2022-09-29T04:20:06;6.60;99.90
40454;DHT22;26160;51.858;4.398;2022-09-29T04:22:46;6.60;99.90
40454;DHT22;26160;51.858;4.398;2022-09-29T04:25:16;6.60;99.90
40454;DHT22;26160;51.858;4.398;2022-09-29T04:27:57;6.60;99.90
40454;DHT22;26160;51.858;4.398;2022-09-29T04:30:40;6.60;99.90
40454;DHT22;26160;51.858;4.398;2022-09-29T04:33:15;6.60;99.90
40454;DHT22;26160;51.858;4.398;2022-09-29T04:35:49;6.60;99.90
40454;DHT22;26160;51.858;4.398;2022-09-29T04:38:36;6.60;99.90
40454;DHT22;26160;51.858;4.398;2022-09-29T04:41:06;6.60;99.90
40454;DHT22;26160;51.858;4.398;2022-09-29T04:43:47;6.60;99.90
40454;DHT22;26160;51.858;4.398;2022-09-29T04:46:26;6.60;99.90
40454;DHT22;26160;51.858;4.398;2022-09-29T04:49:26;6.60;99.90
40454;DHT22;26160;51.858;4.398;2022-09-29T04:51:54;6.60;99.90
40454;DHT22;26160;51.858;4.398;2022-09-29T04:54:22;6.60;99.90
40454;DHT22;26160;51.858;4.398;2022-09-29T04:56:57;6.70;99.90
40454;DHT22;26160;51.858;4.398;2022-09-29T04:59:31;6.60;99.90
40454;DHT22;26160;51.858;4.398;2022-09-29T05:17:27;6.60;99.90
40454;DHT22;26160;51.858;4.398;2022-09-29T05:20:03;6.70;99.90
40454;DHT22;26160;51.858;4.398;2022-09-29T05:22:54;6.70;99.90
40454;DHT22;26160;51.858;4.398;2022-09-29T05:25:48;6.70;99.90
40454;DHT22;26160;51.858;4.398;2022-09-29T05:28:37;6.80;99.90
40454;DHT22;26160;51.858;4.398;2022-09-29T05:31:17;6.80;99.90
40454;DHT22;26160;51.858;4.398;2022-09-29T05:33:54;6.80;99.90
40454;DHT22;26160;51.858;4.398;2022-09-29T05:36:33;6.90;99.90
40454;DHT22;26160;51.858;4.398;2022-09-29T05:39:12;6.90;99.90
40454;DHT22;26160;51.858;4.398;2022-09-29T05:47:35;7.00;99.90
40454;DHT22;26160;51.858;4.398;2022-09-29T05:50:15;7.10;99.90
40454;DHT22;26160;51.858;4.398;2022-09-29T05:53:13;7.20;99.90
40454;DHT22;26160;51.858;4.398;2022-09-29T05:55:44;7.20;99.90
40454;DHT22;26160;51.858;4.398;2022-09-29T05:58:31;7.20;99.90
40454;DHT22;26160;51.858;4.398;2022-09-29T06:01:04;7.20;99.90
40454;DHT22;26160;51.858;4.398;2022-09-29T06:03:41;7.20;99.90
40454;DHT22;26160;51.858;4.398;2022-09-29T06:06:27;7.20;99.90
40454;DHT22;26160;51.858;4.398;2022-09-29T06:08:59;7.20;99.90
40454;DHT22;26160;51.858;4.398;2022-09-29T06:11:29;7.30;99.90
40454;DHT22;26160;51.858;4.398;2022-09-29T06:14:38;7.30;99.90
40454;DHT22;26160;51.858;4.398;2022-09-29T06:17:36;7.40;99.90
40454;DHT22;26160;51.858;4.398;2022-09-29T06:23:43;7.20;99.90
40454;DHT22;26160;51.858;4.398;2022-09-29T06:26:44;7.20;99.90
40454;DHT22;26160;51.858;4.398;2022-09-29T06:29:21;7.20;99.90
40454;DHT22;26160;51.858;4.398;2022-09-29T06:32:11;7.30;99.90
40454;DHT22;26160;51.858;4.398;2022-09-29T06:34:40;7.40;99.90
40454;DHT22;26160;51.858;4.398;2022-09-29T06:37:28;7.40;99.90
40454;DHT22;26160;51.858;4.398;2022-09-29T06:40:06;7.50;99.90
40454;DHT22;26160;51.858;4.398;2022-09-29T06:42:45;7.60;99.90
40454;DHT22;26160;51.858;4.398;2022-09-29T06:45:25;7.60;99.90
40454;DHT22;26160;51.858;4.398;2022-09-29T06:48:11;7.70;99.90
40454;DHT22;26160;51.858;4.398;2022-09-29T06:51:06;7.70;99.90
40454;DHT22;26160;51.858;4.398;2022-09-29T06:53:39;7.70;99.90
40454;DHT22;26160;51.858;4.398;2022-09-29T06:56:30;7.70;99.90
40454;DHT22;26160;51.858;4.398;2022-09-29T06:59:15;7.80;99.90
40454;DHT22;26160;51.858;4.398;2022-09-29T07:01:44;7.80;99.90
40454;DHT22;26160;51.858;4.398;2022-09-29T07:04:21;7.90;99.90
40454;DHT22;26160;51.858;4.398;2022-09-29T07:07:11;7.90;99.90
40454;DHT22;26160;51.858;4.398;2022-09-29T07:10:01;8.00;99.90
40454;DHT22;26160;51.858;4.398;2022-09-29T07:12:51;8.00;99.90
40454;DHT22;26160;51.858;4.398;2022-09-29T07:15:28;8.20;99.90
40454;DHT22;26160;51.858;4.398;2022-09-29T07:18:04;8.30;99.90
40454;DHT22;26160;51.858;4.398;2022-09-29T07:20:51;8.40;99.90
40454;DHT22;26160;51.858;4.398;2022-09-29T07:26:41;8.60;99.90
40454;DHT22;26160;51.858;4.398;2022-09-29T07:29:20;8.90;99.90
40454;DHT22;26160;51.858;4.398;2022-09-29T07:42:04;9.50;99.90
40454;DHT22;26160;51.858;4.398;2022-09-29T07:44:41;9.60;99.90
40454;DHT22;26160;51.858;4.398;2022-09-29T07:47:24;9.70;99.90
40454;DHT22;26160;51.858;4.398;2022-09-29T07:49:58;9.80;99.90
40454;DHT22;26160;51.858;4.398;2022-09-29T07:52:36;9.90;99.90
40454;DHT22;26160;51.858;4.398;2022-09-29T07:58:29;9.90;99.90
40454;DHT22;26160;51.858;4.398;2022-09-29T08:01:04;9.90;99.90
40454;DHT22;26160;51.858;4.398;2022-09-29T08:03:42;10.00;99.90
40454;DHT22;26160;51.858;4.398;2022-09-29T08:11:23;10.20;99.90
40454;DHT22;26160;51.858;4.398;2022-09-29T08:13:51;10.30;99.90
40454;DHT22;26160;51.858;4.398;2022-09-29T08:24:17;10.70;99.90
40454;DHT22;26160;51.858;4.398;2022-09-29T08:26:48;10.80;99.90
40454;DHT22;26160;51.858;4.398;2022-09-29T08:29:21;10.90;99.90
40454;DHT22;26160;51.858;4.398;2022-09-29T08:35:05;10.90;99.90
40454;DHT22;26160;51.858;4.398;2022-09-29T08:37:46;10.90;99.90
40454;DHT22;26160;51.858;4.398;2022-09-29T08:46:59;11.10;99.90
40454;DHT22;26160;51.858;4.398;2022-09-29T08:49:57;11.20;99.90
40454;DHT22;26160;51.858;4.398;2022-09-29T08:53:05;11.30;99.90
40454;DHT22;26160;51.858;4.398;2022-09-29T08:56:17;11.40;99.90
40454;DHT22;26160;51.858;4.398;2022-09-29T08:59:08;11.50;99.90
40454;DHT22;26160;51.858;4.398;2022-09-29T09:02:02;11.50;99.90
40454;DHT22;26160;51.858;4.398;2022-09-29T09:20:17;11.90;99.90
40454;DHT22;26160;51.858;4.398;2022-09-29T09:22:55;12.00;99.90
40454;DHT22;26160;51.858;4.398;2022-09-29T09:25:34;12.10;99.90
40454;DHT22;26160;51.858;4.398;2022-09-29T09:28:26;12.30;99.90
40454;DHT22;26160;51.858;4.398;2022-09-29T09:31:03;12.50;99.90
40454;DHT22;26160;51.858;4.398;2022-09-29T09:37:02;12.70;99.90
40454;DHT22;26160;51.858;4.398;2022-09-29T09:41:46;13.30;99.90
40454;DHT22;26160;51.858;4.398;2022-09-29T09:46:48;13.40;99.90
40454;DHT22;26160;51.858;4.398;2022-09-29T09:49:23;13.70;99.90
40454;DHT22;26160;51.858;4.398;2022-09-29T09:57:56;14.10;99.90
40454;DHT22;26160;51.858;4.398;2022-09-29T10:02:54;14.50;99.90
40454;DHT22;26160;51.858;4.398;2022-09-29T10:05:42;14.70;99.90
40454;DHT22;26160;51.858;4.398;2022-09-29T10:08:33;14.70;99.90
40454;DHT22;26160;51.858;4.398;2022-09-29T10:11:26;14.60;99.90
40454;DHT22;26160;51.858;4.398;2022-09-29T10:14:04;14.50;99.90
40454;DHT22;26160;51.858;4.398;2022-09-29T10:17:05;14.60;99.90
40454;DHT22;26160;51.858;4.398;2022-09-29T10:20:00;14.60;99.90
40454;DHT22;26160;51.858;4.398;2022-09-29T10:22:31;14.60;99.90
40454;DHT22;26160;51.858;4.398;2022-09-29T10:25:19;14.70;99.90
40454;DHT22;26160;51.858;4.398;2022-09-29T10:27:50;14.90;99.90
40454;DHT22;26160;51.858;4.398;2022-09-29T10:30:20;15.00;99.90
40454;DHT22;26160;51.858;4.398;2022-09-29T10:32:48;15.00;99.90
40454;DHT22;26160;51.858;4.398;2022-09-29T10:35:32;15.30;99.90
40454;DHT22;26160;51.858;4.398;2022-09-29T10:38:05;15.40;99.90
40454;DHT22;26160;51.858;4.398;2022-09-29T10:40:33;15.50;99.90
40454;DHT22;26160;51.858;4.398;2022-09-29T10:43:21;15.70;99.90
40454;DHT22;26160;51.858;4.398;2022-09-29T10:45:49;16.00;99.90
40454;DHT22;26160;51.858;4.398;2022-09-29T10:48:15;15.90;99.90
40454;DHT22;26160;51.858;4.398;2022-09-29T10:51:00;15.70;99.90
40454;DHT22;26160;51.858;4.398;2022-09-29T10:55:57;16.00;99.90
40454;DHT22;26160;51.858;4.398;2022-09-29T10:58:39;16.10;99.90
40454;DHT22;26160;51.858;4.398;2022-09-29T11:01:12;16.10;99.90
40454;DHT22;26160;51.858;4.398;2022-09-29T11:03:45;16.20;99.90
40454;DHT22;26160;51.858;4.398;2022-09-29T11:06:13;16.50;99.90
40454;DHT22;26160;51.858;4.398;2022-09-29T11:08:59;16.60;99.90
40454;DHT22;26160;51.858;4.398;2022-09-29T11:11:32;16.40;99.90
40454;DHT22;26160;51.858;4.398;2022-09-29T11:14:00;16.30;99.90
40454;DHT22;26160;51.858;4.398;2022-09-29T11:16:34;16.30;99.90
40454;DHT22;26160;51.858;4.398;2022-09-29T11:19:11;16.60;99.90
40454;DHT22;26160;51.858;4.398;2022-09-29T11:27:37;16.70;99.90
40454;DHT22;26160;51.858;4.398;2022-09-29T11:30:15;17.00;99.90
40454;DHT22;26160;51.858;4.398;2022-09-29T11:33:21;17.00;99.90
40454;DHT22;26160;51.858;4.398;2022-09-29T11:43:59;17.60;99.90
40454;DHT22;26160;51.858;4.398;2022-09-29T11:55:24;17.70;99.90
40454;DHT22;26160;51.858;4.398;2022-09-29T11:58:13;17.50;99.90
40454;DHT22;26160;51.858;4.398;2022-09-29T12:15:16;17.10;99.90
40454;DHT22;26160;51.858;4.398;2022-09-29T12:17:19;17.50;99.90
40454;DHT22;26160;51.858;4.398;2022-09-29T12:19:49;17.70;99.90
40454;DHT22;26160;51.858;4.398;2022-09-29T12:22:18;17.50;99.90
40454;DHT22;26160;51.858;4.398;2022-09-29T12:24:53;17.60;99.90
40454;DHT22;26160;51.858;4.398;2022-09-29T12:27:38;17.50;99.90
40454;DHT22;26160;51.858;4.398;2022-09-29T12:30:19;17.30;99.90
40454;DHT22;26160;51.858;4.398;2022-09-29T12:33:06;17.30;99.90
40454;DHT22;26160;51.858;4.398;2022-09-29T12:35:46;17.40;99.90
40454;DHT22;26160;51.858;4.398;2022-09-29T12:38:27;16.70;99.90
40454;DHT22;26160;51.858;4.398;2022-09-29T12:41:16;17.10;99.90
40454;DHT22;26160;51.858;4.398;2022-09-29T12:46:43;17.30;99.90
40454;DHT22;26160;51.858;4.398;2022-09-29T12:49:32;17.30;99.90
40454;DHT22;26160;51.858;4.398;2022-09-29T12:52:02;17.20;99.90
40454;DHT22;26160;51.858;4.398;2022-09-29T12:54:41;17.60;99.90
40454;DHT22;26160;51.858;4.398;2022-09-29T12:57:14;17.90;99.90
40454;DHT22;26160;51.858;4.398;2022-09-29T12:59:57;18.20;99.90
40454;DHT22;26160;51.858;4.398;2022-09-29T13:18:48;18.30;99.90
40454;DHT22;26160;51.858;4.398;2022-09-29T13:21:52;18.10;99.90
40454;DHT22;26160;51.858;4.398;2022-09-29T13:24:34;17.90;99.90
40454;DHT22;26160;51.858;4.398;2022-09-29T13:29:53;17.70;99.90
40454;DHT22;26160;51.858;4.398;2022-09-29T13:32:21;17.60;99.90
40454;DHT22;26160;51.858;4.398;2022-09-29T13:34:54;17.20;99.90
40454;DHT22;26160;51.858;4.398;2022-09-29T13:37:23;17.20;99.90
40454;DHT22;26160;51.858;4.398;2022-09-29T13:40:03;17.20;99.90
40454;DHT22;26160;51.858;4.398;2022-09-29T13:42:43;17.10;99.90
40454;DHT22;26160;51.858;4.398;2022-09-29T13:47:50;16.80;99.90
40454;DHT22;26160;51.858;4.398;2022-09-29T13:50:43;16.90;99.90
40454;DHT22;26160;51.858;4.398;2022-09-29T13:53:33;17.20;99.90
40454;DHT22;26160;51.858;4.398;2022-09-29T13:58:35;17.40;99.90
40454;DHT22;26160;51.858;4.398;2022-09-29T14:01:05;17.30;99.90
40454;DHT22;26160;51.858;4.398;2022-09-29T14:03:43;17.20;99.90
40454;DHT22;26160;51.858;4.398;2022-09-29T14:06:26;17.10;99.90
40454;DHT22;26160;51.858;4.398;2022-09-29T14:09:12;17.00;99.90
40454;DHT22;26160;51.858;4.398;2022-09-29T14:11:48;16.80;99.90
40454;DHT22;26160;51.858;4.398;2022-09-29T14:14:20;16.70;99.90
40454;DHT22;26160;51.858;4.398;2022-09-29T14:16:53;16.70;99.90
40454;DHT22;26160;51.858;4.398;2022-09-29T14:27:56;16.80;99.90
40454;DHT22;26160;51.858;4.398;2022-09-29T14:30:42;16.70;99.90
40454;DHT22;26160;51.858;4.398;2022-09-29T14:36:16;16.70;99.90
40454;DHT22;26160;51.858;4.398;2022-09-29T14:38:48;16.70;99.90
40454;DHT22;26160;51.858;4.398;2022-09-29T14:41:28;16.70;99.90
40454;DHT22;26160;51.858;4.398;2022-09-29T14:44:08;16.80;99.90
40454;DHT22;26160;51.858;4.398;2022-09-29T15:00:33;16.70;99.90
40454;DHT22;26160;51.858;4.398;2022-09-29T15:03:06;16.70;99.90
40454;DHT22;26160;51.858;4.398;2022-09-29T15:05:34;16.70;99.90
40454;DHT22;26160;51.858;4.398;2022-09-29T15:08:02;16.60;99.90
40454;DHT22;26160;51.858;4.398;2022-09-29T15:10:31;16.60;99.90
40454;DHT22;26160;51.858;4.398;2022-09-29T15:15:42;16.60;99.90
40454;DHT22;26160;51.858;4.398;2022-09-29T15:21:38;16.30;99.90
40454;DHT22;26160;51.858;4.398;2022-09-29T15:26:44;16.00;99.90
40454;DHT22;26160;51.858;4.398;2022-09-29T15:29:14;15.90;99.90
40454;DHT22;26160;51.858;4.398;2022-09-29T15:31:43;15.70;99.90
40454;DHT22;26160;51.858;4.398;2022-09-29T15:34:19;15.60;99.90
40454;DHT22;26160;51.858;4.398;2022-09-29T15:36:54;15.40;99.90
40454;DHT22;26160;51.858;4.398;2022-09-29T15:42:01;15.00;99.90
40454;DHT22;26160;51.858;4.398;2022-09-29T15:44:28;15.00;99.90
40454;DHT22;26160;51.858;4.398;2022-09-29T15:46:58;14.90;99.90
40454;DHT22;26160;51.858;4.398;2022-09-29T15:49:28;14.80;99.90
40454;DHT22;26160;51.858;4.398;2022-09-29T15:52:02;14.80;99.90
40454;DHT22;26160;51.858;4.398;2022-09-29T15:54:32;14.80;99.90
40454;DHT22;26160;51.858;4.398;2022-09-29T15:57:03;14.70;99.90
40454;DHT22;26160;51.858;4.398;2022-09-29T15:59:49;14.70;99.90
40454;DHT22;26160;51.858;4.398;2022-09-29T16:02:40;14.70;99.90
40454;DHT22;26160;51.858;4.398;2022-09-29T16:05:11;14.70;99.90
40454;DHT22;26160;51.858;4.398;2022-09-29T16:07:47;14.60;99.90
40454;DHT22;26160;51.858;4.398;2022-09-29T16:10:17;14.50;99.90
40454;DHT22;26160;51.858;4.398;2022-09-29T16:15:34;14.40;99.90
40454;DHT22;26160;51.858;4.398;2022-09-29T16:18:07;14.40;99.90
40454;DHT22;26160;51.858;4.398;2022-09-29T16:20:34;14.30;99.90
40454;DHT22;26160;51.858;4.398;2022-09-29T16:23:43;14.30;99.90
40454;DHT22;26160;51.858;4.398;2022-09-29T16:26:09;14.20;99.90
40454;DHT22;26160;51.858;4.398;2022-09-29T16:29:01;14.10;99.90
40454;DHT22;26160;51.858;4.398;2022-09-29T16:31:29;14.00;99.90
40454;DHT22;26160;51.858;4.398;2022-09-29T16:33:59;14.00;99.90
40454;DHT22;26160;51.858;4.398;2022-09-29T16:36:29;14.00;99.90
40454;DHT22;26160;51.858;4.398;2022-09-29T16:39:02;14.00;99.90
40454;DHT22;26160;51.858;4.398;2022-09-29T16:41:36;14.00;99.90
40454;DHT22;26160;51.858;4.398;2022-09-29T16:46:46;14.00;99.90
40454;DHT22;26160;51.858;4.398;2022-09-29T16:52:11;14.00;99.90
40454;DHT22;26160;51.858;4.398;2022-09-29T16:54:46;14.00;99.90
40454;DHT22;26160;51.858;4.398;2022-09-29T16:57:26;14.00;99.90
40454;DHT22;26160;51.858;4.398;2022-09-29T16:59:57;14.00;99.90
40454;DHT22;26160;51.858;4.398;2022-09-29T17:02:26;13.90;99.90
40454;DHT22;26160;51.858;4.398;2022-09-29T17:04:54;13.90;99.90
40454;DHT22;26160;51.858;4.398;2022-09-29T17:07:23;13.90;99.90
40454;DHT22;26160;51.858;4.398;2022-09-29T17:09:53;13.90;99.90
40454;DHT22;26160;51.858;4.398;2022-09-29T17:12:21;13.80;99.90
40454;DHT22;26160;51.858;4.398;2022-09-29T17:14:48;13.70;99.90
40454;DHT22;26160;51.858;4.398;2022-09-29T17:17:20;13.70;99.90
40454;DHT22;26160;51.858;4.398;2022-09-29T17:19:51;13.60;99.90
40454;DHT22;26160;51.858;4.398;2022-09-29T17:22:33;13.60;99.90
40454;DHT22;26160;51.858;4.398;2022-09-29T17:25:02;13.60;99.90
40454;DHT22;26160;51.858;4.398;2022-09-29T17:27:36;13.50;99.90
40454;DHT22;26160;51.858;4.398;2022-09-29T17:30:23;13.50;99.90
40454;DHT22;26160;51.858;4.398;2022-09-29T17:33:18;13.40;99.90
40454;DHT22;26160;51.858;4.398;2022-09-29T17:36:02;13.40;99.90
40454;DHT22;26160;51.858;4.398;2022-09-29T17:38:33;13.30;99.90
40454;DHT22;26160;51.858;4.398;2022-09-29T17:43:46;13.20;99.90
40454;DHT22;26160;51.858;4.398;2022-09-29T17:51:54;13.20;99.90
40454;DHT22;26160;51.858;4.398;2022-09-29T20:55:27;9.60;99.90
40454;DHT22;26160;51.858;4.398;2022-09-29T20:58:15;9.60;99.90
40454;DHT22;26160;51.858;4.398;2022-09-29T21:05:56;9.50;99.90
40454;DHT22;26160;51.858;4.398;2022-09-29T21:40:27;9.20;99.90
40454;DHT22;26160;51.858;4.398;2022-09-29T21:42:57;9.20;99.90
40454;DHT22;26160;51.858;4.398;2022-09-29T21:45:29;9.10;99.90
40454;DHT22;26160;51.858;4.398;2022-09-29T21:48:01;9.10;99.90
40454;DHT22;26160;51.858;4.398;2022-09-29T21:54:20;9.10;99.90
40454;DHT22;26160;51.858;4.398;2022-09-29T21:56:53;9.00;99.90
40454;DHT22;26160;51.858;4.398;2022-09-29T21:59:27;9.00;99.90
40454;DHT22;26160;51.858;4.398;2022-09-29T22:02:01;9.00;99.90
40454;DHT22;26160;51.858;4.398;2022-09-29T22:04:54;9.00;99.90
40454;DHT22;26160;51.858;4.398;2022-09-29T22:07:20;8.90;99.90
40454;DHT22;26160;51.858;4.398;2022-09-29T22:09:48;8.90;99.90
40454;DHT22;26160;51.858;4.398;2022-09-29T22:12:31;8.90;99.90
40454;DHT22;26160;51.858;4.398;2022-09-29T22:15:01;8.90;99.90
40454;DHT22;26160;51.858;4.398;2022-09-29T22:17:30;8.80;99.90
40454;DHT22;26160;51.858;4.398;2022-09-29T22:19:57;8.80;99.90
40454;DHT22;26160;51.858;4.398;2022-09-29T22:22:24;8.80;99.90
40454;DHT22;26160;51.858;4.398;2022-09-29T22:24:59;8.80;99.90
40454;DHT22;26160;51.858;4.398;2022-09-29T22:27:33;8.70;99.90
40454;DHT22;26160;51.858;4.398;2022-09-29T22:30:08;8.70;99.90
40454;DHT22;26160;51.858;4.398;2022-09-29T22:32:45;8.70;99.90
40454;DHT22;26160;51.858;4.398;2022-09-29T22:35:13;8.70;99.90
40454;DHT22;26160;51.858;4.398;2022-09-29T22:37:45;8.70;99.90
40454;DHT22;26160;51.858;4.398;2022-09-29T22:40:16;8.60;99.90
40454;DHT22;26160;51.858;4.398;2022-09-29T22:42:43;8.60;99.90
40454;DHT22;26160;51.858;4.398;2022-09-29T22:45:30;8.60;99.90
40454;DHT22;26160;51.858;4.398;2022-09-29T22:47:59;8.60;99.90
40454;DHT22;26160;51.858;4.398;2022-09-29T22:50:29;8.60;99.90
40454;DHT22;26160;51.858;4.398;2022-09-29T22:52:57;8.70;99.90
40454;DHT22;26160;51.858;4.398;2022-09-29T22:55:45;8.60;99.90
40454;DHT22;26160;51.858;4.398;2022-09-29T22:58:15;8.60;99.90
40454;DHT22;26160;51.858;4.398;2022-09-29T23:01:12;8.60;99.90
40454;DHT22;26160;51.858;4.398;2022-09-29T23:03:43;8.70;99.90
40454;DHT22;26160;51.858;4.398;2022-09-29T23:09:05;8.70;99.90
40454;DHT22;26160;51.858;4.398;2022-09-29T23:11:47;8.70;99.90
40454;DHT22;26160;51.858;4.398;2022-09-29T23:14:17;8.70;99.90
40454;DHT22;26160;51.858;4.398;2022-09-29T23:16:56;8.70;99.90
40454;DHT22;26160;51.858;4.398;2022-09-29T23:19:23;8.70;99.90
40454;DHT22;26160;51.858;4.398;2022-09-29T23:21:54;8.70;99.90
40454;DHT22;26160;51.858;4.398;2022-09-29T23:24:31;8.80;99.90
40454;DHT22;26160;51.858;4.398;2022-09-29T23:27:03;8.80;99.90
40454;DHT22;26160;51.858;4.398;2022-09-29T23:29:36;8.80;99.90
40454;DHT22;26160;51.858;4.398;2022-09-29T23:35:04;8.90;99.90
40454;DHT22;26160;51.858;4.398;2022-09-29T23:37:36;9.00;99.90
40454;DHT22;26160;51.858;4.398;2022-09-29T23:40:52;9.00;99.90
40454;DHT22;26160;51.858;4.398;2022-09-29T23:43:41;9.00;99.90
40454;DHT22;26160;51.858;4.398;2022-09-29T23:46:15;9.00;99.90
40454;DHT22;26160;51.858;4.398;2022-09-29T23:48:46;9.00;99.90
40454;DHT22;26160;51.858;4.398;2022-09-29T23:51:13;9.10;99.90
40454;DHT22;26160;51.858;4.398;2022-09-29T23:53:58;9.10;99.90
40454;DHT22;26160;51.858;4.398;2022-09-29T23:56:31;9.10;99.90
40454;DHT22;26160;51.858;4.398;2022-09-29T23:59:07;9.10;99.90
